createdAt,value
2018-12-13T00:04:30.109Z,7.72
2018-12-13T00:10:25.117Z,8.9
2018-12-13T00:16:20.134Z,8.83
2018-12-13T00:22:15.091Z,8.99
2018-12-13T00:28:10.105Z,8.29
2018-12-13T00:34:05.164Z,8.88
2018-12-13T00:40:00.133Z,8.14
2018-12-13T00:45:55.143Z,7.8
2018-12-13T00:51:50.113Z,5.39
2018-12-13T00:57:45.155Z,4.67
2018-12-13T01:03:40.164Z,4.79
2018-12-13T01:09:35.165Z,3.81
2018-12-13T01:15:30.150Z,3.31
2018-12-13T01:21:25.123Z,3.2
2018-12-13T01:27:20.143Z,2.75
2018-12-13T01:33:15.135Z,2.19
2018-12-13T01:39:10.257Z,1.99
2018-12-13T01:45:05.166Z,0.9
2018-12-13T01:51:00.184Z,0.93
2018-12-13T01:56:55.140Z,0.92
2018-12-13T02:02:50.175Z,0.71
2018-12-13T02:08:45.173Z,0.75
2018-12-13T02:14:40.174Z,0.82
2018-12-13T02:20:35.192Z,1.24
2018-12-13T02:26:30.191Z,1.14
2018-12-13T02:32:25.174Z,0.82
2018-12-13T02:38:20.242Z,1
2018-12-13T02:44:15.226Z,1.31
2018-12-13T02:50:10.189Z,1.12
2018-12-13T02:56:05.216Z,1.31
2018-12-13T03:02:00.202Z,1.59
2018-12-13T03:07:55.187Z,1.22
2018-12-13T03:13:50.202Z,1.29
2018-12-13T03:19:45.208Z,1.27
2018-12-13T03:25:40.233Z,1.65
2018-12-13T03:31:35.261Z,1.47
2018-12-13T03:37:30.238Z,1.25
2018-12-13T03:43:25.216Z,1.42
2018-12-13T03:49:20.254Z,1.16
2018-12-13T03:55:15.213Z,1.66
2018-12-13T04:01:10.213Z,1.33
2018-12-13T04:07:05.318Z,1.23
2018-12-13T04:13:00.244Z,1.09
2018-12-13T04:18:55.246Z,1.09
2018-12-13T04:24:50.246Z,1.35
2018-12-13T08:21:46.647Z,4.94
2018-12-13T08:27:41.587Z,4.17
2018-12-13T08:33:36.620Z,3.47
2018-12-13T08:39:31.595Z,3.34
2018-12-13T08:45:26.649Z,4.22
2018-12-13T08:51:21.615Z,3.82
2018-12-13T08:57:16.618Z,3.54
2018-12-13T09:03:11.652Z,4.83
2018-12-13T09:09:06.601Z,4.51
2018-12-13T09:15:01.643Z,4.84
2018-12-13T09:20:56.632Z,4.47
2018-12-13T09:26:51.695Z,5.97
2018-12-13T09:32:46.650Z,5.94
2018-12-13T09:38:41.671Z,5.11
2018-12-13T09:44:36.676Z,4.91
2018-12-13T09:50:31.680Z,4.26
2018-12-13T09:56:26.644Z,3.95
2018-12-13T10:02:21.708Z,4.67
2018-12-13T10:08:16.709Z,3.01
2018-12-13T10:14:11.712Z,2
2018-12-13T10:20:06.667Z,3.22
2018-12-13T10:26:01.668Z,3.2
2018-12-13T10:31:56.677Z,3.02
2018-12-13T10:37:51.700Z,3.78
2018-12-13T10:43:46.708Z,3.37
2018-12-13T10:49:41.664Z,3.22
2018-12-13T10:55:36.676Z,3.7
2018-12-13T11:01:31.718Z,3.58
2018-12-13T11:07:26.712Z,3.61
2018-12-13T11:13:21.687Z,3.91
2018-12-13T11:19:16.681Z,4.29
2018-12-13T11:25:11.745Z,4.03
2018-12-13T11:31:06.706Z,3.22
2018-12-13T11:37:01.744Z,3.98
2018-12-13T11:42:56.691Z,3.96
2018-12-13T11:48:51.702Z,3.3
2018-12-13T11:54:46.741Z,3.06
2018-12-13T12:00:41.703Z,3.1
2018-12-13T12:06:36.744Z,2.48
2018-12-13T12:12:31.721Z,2.58
2018-12-13T12:18:26.732Z,2.37
2018-12-13T12:24:21.800Z,2.68
2018-12-13T12:30:16.764Z,2.27
2018-12-13T12:36:11.748Z,2.64
2018-12-13T12:42:06.743Z,2.58
2018-12-13T12:48:01.745Z,2.28
2018-12-13T12:53:56.746Z,2.41
2018-12-13T12:59:51.769Z,2.21
2018-12-13T13:05:46.766Z,2.55
2018-12-13T13:11:41.774Z,2.7
2018-12-13T13:17:36.779Z,2.06
2018-12-13T13:23:31.778Z,2.07
2018-12-13T13:29:26.766Z,2.18
2018-12-13T13:35:21.794Z,1.91
2018-12-13T13:41:16.809Z,2.2
2018-12-13T13:47:11.787Z,1.76
2018-12-13T13:53:06.789Z,1.78
2018-12-13T13:59:01.800Z,2.12
2018-12-13T14:04:56.785Z,2.45
2018-12-13T14:10:51.824Z,1.83
2018-12-13T14:16:46.795Z,1.55
2018-12-13T14:22:41.811Z,1.15
2018-12-13T14:28:36.798Z,1.02
2018-12-13T14:34:31.809Z,1.31
2018-12-13T14:40:26.825Z,1.34
2018-12-13T14:46:21.803Z,1.11
2018-12-13T14:52:16.821Z,1.03
2018-12-13T14:58:11.871Z,0.8
2018-12-13T15:04:06.835Z,0.96
2018-12-13T15:10:01.820Z,1.12
2018-12-13T15:15:56.832Z,1.15
2018-12-13T16:20:16.600Z,2.74
2018-12-13T16:26:11.620Z,6.57
2018-12-13T16:32:06.658Z,2.15
2018-12-13T16:38:01.604Z,3.03
2018-12-13T16:43:56.611Z,1.63
2018-12-13T16:49:51.592Z,3.22
2018-12-13T16:55:46.651Z,1.64
2018-12-13T17:01:41.648Z,5.91
2018-12-13T17:07:36.676Z,3.53
2018-12-13T17:13:31.648Z,3.67
2018-12-13T17:19:26.669Z,31.47
2018-12-13T17:25:21.661Z,16.3
2018-12-13T17:31:16.656Z,10.22
2018-12-13T17:37:11.689Z,8.46
2018-12-13T17:43:06.679Z,2.76
2018-12-13T17:49:01.685Z,5.24
2018-12-13T17:54:56.637Z,7.71
2018-12-13T18:00:51.677Z,6.09
2018-12-13T18:06:47.401Z,4.48
2018-12-13T18:12:41.702Z,4.63
2018-12-13T18:18:36.666Z,3.84
2018-12-13T18:24:31.672Z,2.37
2018-12-13T18:30:26.694Z,3.15
2018-12-13T18:36:21.693Z,3.98
2018-12-13T18:42:16.689Z,6.56
2018-12-13T18:48:11.705Z,6.52
2018-12-13T18:54:06.721Z,8.98
2018-12-13T19:00:01.702Z,8.43
2018-12-13T19:05:56.705Z,3.57
2018-12-13T19:11:51.691Z,9.09
2018-12-13T19:17:46.723Z,7.95
2018-12-13T19:23:41.724Z,4.66
2018-12-13T19:29:36.712Z,3
2018-12-13T19:35:31.717Z,5.07
2018-12-13T19:41:26.718Z,4.61
2018-12-13T19:47:21.718Z,4.31
2018-12-13T19:53:16.720Z,4.11
2018-12-13T19:59:11.744Z,2.56
2018-12-13T20:05:06.762Z,1.9
2018-12-13T20:11:01.739Z,5.53
2018-12-13T20:16:56.718Z,2.86
2018-12-13T20:22:51.751Z,13.33
2018-12-13T20:28:46.772Z,5.13
2018-12-13T20:34:41.755Z,1.46
2018-12-13T20:40:36.763Z,2.21
2018-12-13T20:46:31.774Z,1.46
2018-12-13T20:52:26.804Z,1.87
2018-12-13T20:58:21.775Z,1.26
2018-12-13T21:04:16.742Z,3.21
2018-12-13T21:10:11.803Z,1.93
2018-12-13T21:16:06.833Z,1.87
2018-12-13T21:22:01.762Z,1.94
2018-12-13T21:27:56.792Z,1.94
2018-12-13T21:33:51.802Z,1.97
2018-12-13T21:39:46.782Z,1.7
2018-12-13T21:45:41.827Z,1.97
2018-12-13T21:51:36.798Z,1.83
2018-12-13T21:57:31.803Z,1.87
2018-12-13T22:03:26.786Z,1.75
2018-12-13T22:09:21.822Z,1.53
2018-12-13T22:15:16.782Z,1.64
2018-12-13T22:21:11.800Z,1.29
2018-12-13T22:27:06.838Z,1.5
2018-12-13T22:33:01.810Z,1.03
2018-12-13T22:38:56.803Z,1.57
2018-12-13T22:44:51.827Z,1.48
2018-12-13T22:50:46.837Z,1.47
2018-12-13T22:56:41.831Z,1.4
2018-12-13T23:02:36.820Z,1.01
2018-12-13T23:08:31.850Z,1.16
2018-12-13T23:14:26.856Z,1.14
2018-12-13T23:20:21.819Z,1.22
2018-12-13T23:26:16.879Z,1.01
2018-12-13T23:32:11.853Z,1.13
2018-12-13T23:38:06.895Z,1.04
2018-12-13T23:44:01.840Z,1.23
2018-12-13T23:49:56.905Z,1.27
2018-12-13T23:55:51.874Z,1.4
